Terminal Aerodrome Forecast
Issued by NWS Corpus Christi, TX

Home | Current Version | Previous Version | Text Only | Print | Product List | Glossary On
Versions: 1 2 3 4 5 6 7 8 9 10 11 12 13 14 15 16 17 18 19 20 21 22
000
FTUS44 KCRP 021324 AAA
TAFCRP
TAF AMD
KCRP 021324Z 0213/0312 04006KT P6SM SCT030
     FM021600 07007KT P6SM VCSH SCT035
     FM022000 11012G17KT P6SM FEW035
     FM030500 VRB03KT P6SM FEW018=

USA.gov is the U.S. government's official web portal to all federal, state and local government web resources and services.